sensor_id;sensor_type;location;lat;lon;timestamp;P1;P2;P0
76383;PMS7003;65204;48.606;7.598;2023-04-07T00:00:17;20.67;19.33;14.33
76383;PMS7003;65204;48.606;7.598;2023-04-07T00:00:48;26.67;24.33;18.00
76383;PMS7003;65204;48.606;7.598;2023-04-07T00:01:18;21.67;20.00;15.00
76383;PMS7003;65204;48.606;7.598;2023-04-07T00:01:48;24.67;20.00;15.33
76383;PMS7003;65204;48.606;7.598;2023-04-07T00:02:19;27.67;21.33;16.00
76383;PMS7003;65204;48.606;7.598;2023-04-07T00:02:50;19.33;19.33;15.33
76383;PMS7003;65204;48.606;7.598;2023-04-07T00:03:20;26.00;21.00;16.67
76383;PMS7003;65204;48.606;7.598;2023-04-07T00:03:50;22.67;21.67;16.33
76383;PMS7003;65204;48.606;7.598;2023-04-07T00:04:21;24.00;23.00;16.67
76383;PMS7003;65204;48.606;7.598;2023-04-07T00:04:51;25.00;23.00;17.33
76383;PMS7003;65204;48.606;7.598;2023-04-07T00:05:21;21.67;20.00;16.33
76383;PMS7003;65204;48.606;7.598;2023-04-07T00:05:52;19.00;17.33;14.00
76383;PMS7003;65204;48.606;7.598;2023-04-07T00:06:22;23.00;21.33;16.33
76383;PMS7003;65204;48.606;7.598;2023-04-07T00:06:52;21.00;21.00;16.00
76383;PMS7003;65204;48.606;7.598;2023-04-07T00:07:23;21.00;20.67;17.00
76383;PMS7003;65204;48.606;7.598;2023-04-07T00:07:53;19.67;19.67;15.33
76383;PMS7003;65204;48.606;7.598;2023-04-07T00:08:23;25.33;24.33;18.33
76383;PMS7003;65204;48.606;7.598;2023-04-07T00:08:54;20.33;20.33;15.33
76383;PMS7003;65204;48.606;7.598;2023-04-07T00:09:24;21.33;19.33;16.00
76383;PMS7003;65204;48.606;7.598;2023-04-07T00:09:54;23.00;22.33;16.67
76383;PMS7003;65204;48.606;7.598;2023-04-07T00:10:25;22.33;21.33;16.00
76383;PMS7003;65204;48.606;7.598;2023-04-07T00:10:56;24.00;23.50;17.00
76383;PMS7003;65204;48.606;7.598;2023-04-07T00:11:27;18.00;17.00;12.75
76383;PMS7003;65204;48.606;7.598;2023-04-07T00:11:57;22.00;21.00;15.67
76383;PMS7003;65204;48.606;7.598;2023-04-07T00:12:30;20.75;20.00;15.75
76383;PMS7003;65204;48.606;7.598;2023-04-07T00:13:01;25.25;23.00;15.75
76383;PMS7003;65204;48.606;7.598;2023-04-07T00:13:31;21.67;21.33;16.00
76383;PMS7003;65204;48.606;7.598;2023-04-07T00:14:02;25.00;21.33;15.67
76383;PMS7003;65204;48.606;7.598;2023-04-07T00:14:32;21.67;19.00;15.00
76383;PMS7003;65204;48.606;7.598;2023-04-07T00:15:02;19.25;19.25;13.75
76383;PMS7003;65204;48.606;7.598;2023-04-07T00:15:33;22.00;21.67;16.33
76383;PMS7003;65204;48.606;7.598;2023-04-07T00:16:03;18.50;17.00;14.00
76383;PMS7003;65204;48.606;7.598;2023-04-07T00:16:34;23.00;20.67;16.33
76383;PMS7003;65204;48.606;7.598;2023-04-07T00:17:04;22.00;19.67;16.00
76383;PMS7003;65204;48.606;7.598;2023-04-07T00:17:34;23.00;18.00;14.25
76383;PMS7003;65204;48.606;7.598;2023-04-07T00:18:05;22.33;20.67;14.67
76383;PMS7003;65204;48.606;7.598;2023-04-07T00:18:35;22.25;16.75;13.75
76383;PMS7003;65204;48.606;7.598;2023-04-07T00:19:05;18.67;15.33;11.67
76383;PMS7003;65204;48.606;7.598;2023-04-07T00:19:36;15.00;15.00;13.00
76383;PMS7003;65204;48.606;7.598;2023-04-07T00:20:06;15.67;15.00;11.00
76383;PMS7003;65204;48.606;7.598;2023-04-07T00:20:37;20.67;19.00;15.00
76383;PMS7003;65204;48.606;7.598;2023-04-07T00:21:07;20.00;20.00;15.25
76383;PMS7003;65204;48.606;7.598;2023-04-07T00:21:38;21.00;20.00;16.00
76383;PMS7003;65204;48.606;7.598;2023-04-07T00:22:08;18.33;17.00;13.00
76383;PMS7003;65204;48.606;7.598;2023-04-07T00:22:38;21.67;20.67;14.33
76383;PMS7003;65204;48.606;7.598;2023-04-07T00:23:09;18.25;16.25;12.50
76383;PMS7003;65204;48.606;7.598;2023-04-07T00:23:39;17.25;17.25;14.00
76383;PMS7003;65204;48.606;7.598;2023-04-07T00:24:09;19.33;19.33;13.33
76383;PMS7003;65204;48.606;7.598;2023-04-07T00:24:40;21.25;15.50;12.00
76383;PMS7003;65204;48.606;7.598;2023-04-07T00:25:11;20.50;16.75;13.00
76383;PMS7003;65204;48.606;7.598;2023-04-07T00:25:41;20.00;18.00;14.00
76383;PMS7003;65204;48.606;7.598;2023-04-07T00:26:12;19.00;19.00;14.00
76383;PMS7003;65204;48.606;7.598;2023-04-07T00:26:42;23.00;19.67;15.00
76383;PMS7003;65204;48.606;7.598;2023-04-07T00:27:12;18.25;15.50;11.50
76383;PMS7003;65204;48.606;7.598;2023-04-07T00:27:43;15.75;14.00;8.25
76383;PMS7003;65204;48.606;7.598;2023-04-07T00:28:13;18.75;17.50;14.25
76383;PMS7003;65204;48.606;7.598;2023-04-07T00:28:43;19.25;18.50;14.00
76383;PMS7003;65204;48.606;7.598;2023-04-07T00:29:14;22.33;21.00;15.00
76383;PMS7003;65204;48.606;7.598;2023-04-07T00:29:44;20.00;18.00;14.00
76383;PMS7003;65204;48.606;7.598;2023-04-07T00:30:15;15.50;15.50;12.00
76383;PMS7003;65204;48.606;7.598;2023-04-07T00:30:46;19.75;19.75;13.75
76383;PMS7003;65204;48.606;7.598;2023-04-07T00:31:17;18.33;18.33;14.00
76383;PMS7003;65204;48.606;7.598;2023-04-07T00:31:47;17.00;15.33;11.00
76383;PMS7003;65204;48.606;7.598;2023-04-07T00:32:18;15.67;15.67;11.33
76383;PMS7003;65204;48.606;7.598;2023-04-07T00:32:48;20.00;18.33;13.67
76383;PMS7003;65204;48.606;7.598;2023-04-07T00:33:20;21.00;17.00;11.25
76383;PMS7003;65204;48.606;7.598;2023-04-07T00:33:50;16.75;16.75;12.00
76383;PMS7003;65204;48.606;7.598;2023-04-07T00:34:21;15.00;14.33;12.33
76383;PMS7003;65204;48.606;7.598;2023-04-07T00:34:51;18.00;16.00;11.67
76383;PMS7003;65204;48.606;7.598;2023-04-07T00:35:21;18.33;18.33;14.33
76383;PMS7003;65204;48.606;7.598;2023-04-07T00:35:52;17.33;15.00;11.33
76383;PMS7003;65204;48.606;7.598;2023-04-07T00:36:23;19.20;16.80;13.60
76383;PMS7003;65204;48.606;7.598;2023-04-07T00:36:53;14.50;13.75;11.00
76383;PMS7003;65204;48.606;7.598;2023-04-07T00:37:24;20.00;18.00;15.00
76383;PMS7003;65204;48.606;7.598;2023-04-07T00:37:54;15.33;15.33;11.67
76383;PMS7003;65204;48.606;7.598;2023-04-07T00:38:25;19.75;19.75;15.00
76383;PMS7003;65204;48.606;7.598;2023-04-07T00:38:56;16.00;16.00;12.00
76383;PMS7003;65204;48.606;7.598;2023-04-07T00:39:26;16.33;13.33;11.33
76383;PMS7003;65204;48.606;7.598;2023-04-07T00:39:56;20.25;17.00;13.25
76383;PMS7003;65204;48.606;7.598;2023-04-07T00:40:28;16.00;16.00;11.25
76383;PMS7003;65204;48.606;7.598;2023-04-07T00:40:58;19.75;18.00;14.50
76383;PMS7003;65204;48.606;7.598;2023-04-07T00:41:29;16.67;15.00;12.33
76383;PMS7003;65204;48.606;7.598;2023-04-07T00:41:59;14.75;14.75;11.25
76383;PMS7003;65204;48.606;7.598;2023-04-07T00:42:30;17.33;17.33;13.33
76383;PMS7003;65204;48.606;7.598;2023-04-07T00:43:00;16.00;16.00;13.25
76383;PMS7003;65204;48.606;7.598;2023-04-07T00:43:30;14.75;14.75;12.25
76383;PMS7003;65204;48.606;7.598;2023-04-07T00:44:01;21.00;18.50;13.00
76383;PMS7003;65204;48.606;7.598;2023-04-07T00:44:31;20.33;19.00;13.33
76383;PMS7003;65204;48.606;7.598;2023-04-07T00:45:02;17.50;16.50;12.25
76383;PMS7003;65204;48.606;7.598;2023-04-07T00:45:33;16.50;16.25;12.25
76383;PMS7003;65204;48.606;7.598;2023-04-07T00:46:03;17.25;17.25;11.75
76383;PMS7003;65204;48.606;7.598;2023-04-07T00:46:33;18.33;17.33;13.33
76383;PMS7003;65204;48.606;7.598;2023-04-07T00:47:04;18.00;17.25;14.00
76383;PMS7003;65204;48.606;7.598;2023-04-07T00:47:34;17.67;16.67;12.67
76383;PMS7003;65204;48.606;7.598;2023-04-07T00:48:05;23.50;20.75;15.75
76383;PMS7003;65204;48.606;7.598;2023-04-07T00:48:35;19.33;17.33;13.33
76383;PMS7003;65204;48.606;7.598;2023-04-07T00:49:06;19.33;18.33;13.00
76383;PMS7003;65204;48.606;7.598;2023-04-07T00:49:37;18.25;16.75;13.25
76383;PMS7003;65204;48.606;7.598;2023-04-07T00:50:07;19.67;16.67;14.00
76383;PMS7003;65204;48.606;7.598;2023-04-07T00:50:38;19.33;19.00;14.33
76383;PMS7003;65204;48.606;7.598;2023-04-07T00:51:08;21.00;20.00;14.67
76383;PMS7003;65204;48.606;7.598;2023-04-07T00:51:39;18.00;18.00;14.00
76383;PMS7003;65204;48.606;7.598;2023-04-07T00:52:10;22.25;19.50;16.00
76383;PMS7003;65204;48.606;7.598;2023-04-07T00:52:41;21.25;20.25;15.00
76383;PMS7003;65204;48.606;7.598;2023-04-07T00:53:12;21.00;19.67;16.00
76383;PMS7003;65204;48.606;7.598;2023-04-07T00:53:42;19.33;17.67;15.00
76383;PMS7003;65204;48.606;7.598;2023-04-07T00:54:13;21.67;20.33;16.67
76383;PMS7003;65204;48.606;7.598;2023-04-07T00:54:44;25.00;22.00;17.00
76383;PMS7003;65204;48.606;7.598;2023-04-07T00:55:15;22.50;21.50;17.00
76383;PMS7003;65204;48.606;7.598;2023-04-07T00:55:46;22.00;21.33;16.00
76383;PMS7003;65204;48.606;7.598;2023-04-07T00:56:16;24.67;22.33;15.33
76383;PMS7003;65204;48.606;7.598;2023-04-07T00:56:46;23.00;22.33;17.00
76383;PMS7003;65204;48.606;7.598;2023-04-07T00:57:17;26.67;22.33;16.67
76383;PMS7003;65204;48.606;7.598;2023-04-07T00:57:47;22.00;22.00;18.00
76383;PMS7003;65204;48.606;7.598;2023-04-07T00:58:18;29.00;27.67;20.00
76383;PMS7003;65204;48.606;7.598;2023-04-07T00:58:48;27.33;27.33;20.33
76383;PMS7003;65204;48.606;7.598;2023-04-07T00:59:18;29.33;25.00;18.00
76383;PMS7003;65204;48.606;7.598;2023-04-07T00:59:50;29.25;25.75;20.75
76383;PMS7003;65204;48.606;7.598;2023-04-07T01:00:22;34.00;31.00;21.75
76383;PMS7003;65204;48.606;7.598;2023-04-07T01:01:03;40.33;30.00;22.00
76383;PMS7003;65204;48.606;7.598;2023-04-07T01:01:43;35.00;30.25;21.50
76383;PMS7003;65204;48.606;7.598;2023-04-07T01:02:18;34.00;31.00;21.00
76383;PMS7003;65204;48.606;7.598;2023-04-07T01:03:04;28.75;28.25;20.00
76383;PMS7003;65204;48.606;7.598;2023-04-07T01:03:44;31.50;29.75;21.00
76383;PMS7003;65204;48.606;7.598;2023-04-07T01:04:25;29.50;28.25;20.00
76383;PMS7003;65204;48.606;7.598;2023-04-07T01:05:07;30.25;25.00;18.50
76383;PMS7003;65204;48.606;7.598;2023-04-07T01:05:45;27.50;27.00;19.25
76383;PMS7003;65204;48.606;7.598;2023-04-07T01:06:25;34.00;28.75;20.00
76383;PMS7003;65204;48.606;7.598;2023-04-07T01:07:03;29.00;25.50;18.75
76383;PMS7003;65204;48.606;7.598;2023-04-07T01:07:57;24.75;24.75;17.75
76383;PMS7003;65204;48.606;7.598;2023-04-07T01:08:41;27.25;27.25;19.75
76383;PMS7003;65204;48.606;7.598;2023-04-07T01:09:22;32.75;27.50;17.75
76383;PMS7003;65204;48.606;7.598;2023-04-07T01:10:02;28.75;27.50;20.00
76383;PMS7003;65204;48.606;7.598;2023-04-07T01:10:43;35.25;31.25;21.75
76383;PMS7003;65204;48.606;7.598;2023-04-07T01:11:24;35.25;30.00;21.00
76383;PMS7003;65204;48.606;7.598;2023-04-07T01:12:56;30.50;28.75;21.00
76383;PMS7003;65204;48.606;7.598;2023-04-07T01:13:39;25.50;24.75;19.00
76383;PMS7003;65204;48.606;7.598;2023-04-07T01:14:11;36.50;31.25;21.75
76383;PMS7003;65204;48.606;7.598;2023-04-07T01:14:46;29.50;29.00;19.50
76383;PMS7003;65204;48.606;7.598;2023-04-07T01:15:21;30.00;29.25;21.50
76383;PMS7003;65204;48.606;7.598;2023-04-07T01:15:57;25.50;23.00;17.00
76383;PMS7003;65204;48.606;7.598;2023-04-07T01:16:33;25.25;24.75;17.50
76383;PMS7003;65204;48.606;7.598;2023-04-07T01:17:06;27.75;26.25;19.50
76383;PMS7003;65204;48.606;7.598;2023-04-07T01:17:41;30.75;28.50;20.00
76383;PMS7003;65204;48.606;7.598;2023-04-07T01:18:16;27.50;26.25;19.00
76383;PMS7003;65204;48.606;7.598;2023-04-07T01:18:53;32.75;28.75;20.25
76383;PMS7003;65204;48.606;7.598;2023-04-07T01:19:32;30.25;27.50;20.00
76383;PMS7003;65204;48.606;7.598;2023-04-07T01:20:06;28.25;25.25;18.75
76383;PMS7003;65204;48.606;7.598;2023-04-07T01:20:40;21.75;21.00;17.50
76383;PMS7003;65204;48.606;7.598;2023-04-07T01:21:15;22.75;22.50;17.75
76383;PMS7003;65204;48.606;7.598;2023-04-07T01:21:47;26.75;25.25;18.00
76383;PMS7003;65204;48.606;7.598;2023-04-07T01:22:23;27.25;25.50;18.50
76383;PMS7003;65204;48.606;7.598;2023-04-07T01:22:58;26.00;26.00;19.50
76383;PMS7003;65204;48.606;7.598;2023-04-07T01:23:45;27.75;26.25;19.25
76383;PMS7003;65204;48.606;7.598;2023-04-07T01:24:26;28.50;26.25;18.50
76383;PMS7003;65204;48.606;7.598;2023-04-07T01:26:03;25.75;23.25;16.50
76383;PMS7003;65204;48.606;7.598;2023-04-07T01:26:46;31.25;26.25;18.00
76383;PMS7003;65204;48.606;7.598;2023-04-07T01:30:02;29.50;29.50;20.00
76383;PMS7003;65204;48.606;7.598;2023-04-07T01:30:35;29.25;26.25;19.75
76383;PMS7003;65204;48.606;7.598;2023-04-07T01:31:09;24.25;23.00;18.00
76383;PMS7003;65204;48.606;7.598;2023-04-07T01:31:41;29.50;28.75;20.00
76383;PMS7003;65204;48.606;7.598;2023-04-07T01:32:13;26.75;25.75;18.25
76383;PMS7003;65204;48.606;7.598;2023-04-07T01:32:49;23.25;21.50;14.75
76383;PMS7003;65204;48.606;7.598;2023-04-07T01:33:22;33.75;28.00;21.25
76383;PMS7003;65204;48.606;7.598;2023-04-07T01:33:53;28.25;26.00;18.75
76383;PMS7003;65204;48.606;7.598;2023-04-07T01:34:25;27.75;26.25;20.00
76383;PMS7003;65204;48.606;7.598;2023-04-07T01:34:57;26.50;25.75;18.75
76383;PMS7003;65204;48.606;7.598;2023-04-07T01:35:29;30.25;27.75;20.50
76383;PMS7003;65204;48.606;7.598;2023-04-07T01:36:03;27.75;27.75;19.75
76383;PMS7003;65204;48.606;7.598;2023-04-07T01:36:36;31.00;30.25;22.75
76383;PMS7003;65204;48.606;7.598;2023-04-07T01:37:06;22.33;22.33;16.33
76383;PMS7003;65204;48.606;7.598;2023-04-07T01:37:39;29.75;27.75;19.00
76383;PMS7003;65204;48.606;7.598;2023-04-07T01:38:09;27.25;26.25;21.00
76383;PMS7003;65204;48.606;7.598;2023-04-07T01:38:42;24.75;24.00;14.75
76383;PMS7003;65204;48.606;7.598;2023-04-07T01:39:13;28.50;28.50;20.00
76383;PMS7003;65204;48.606;7.598;2023-04-07T01:39:44;26.00;23.33;17.00
76383;PMS7003;65204;48.606;7.598;2023-04-07T01:40:15;31.00;26.33;20.33
76383;PMS7003;65204;48.606;7.598;2023-04-07T01:40:46;28.50;26.50;19.25
76383;PMS7003;65204;48.606;7.598;2023-04-07T01:41:18;28.25;27.25;19.00
76383;PMS7003;65204;48.606;7.598;2023-04-07T01:41:50;28.75;25.75;19.25
76383;PMS7003;65204;48.606;7.598;2023-04-07T01:42:22;32.75;27.75;21.00
76383;PMS7003;65204;48.606;7.598;2023-04-07T01:42:58;29.25;27.75;19.50
76383;PMS7003;65204;48.606;7.598;2023-04-07T01:43:30;24.50;22.00;18.50
76383;PMS7003;65204;48.606;7.598;2023-04-07T01:44:01;29.50;26.75;19.00
76383;PMS7003;65204;48.606;7.598;2023-04-07T01:44:32;29.25;27.75;20.00
76383;PMS7003;65204;48.606;7.598;2023-04-07T01:45:04;25.25;21.75;16.75
76383;PMS7003;65204;48.606;7.598;2023-04-07T01:45:36;29.50;27.00;19.00
76383;PMS7003;65204;48.606;7.598;2023-04-07T01:46:08;22.00;20.50;18.00
76383;PMS7003;65204;48.606;7.598;2023-04-07T01:46:38;23.33;22.67;16.33
76383;PMS7003;65204;48.606;7.598;2023-04-07T01:47:08;23.00;22.67;17.00
76383;PMS7003;65204;48.606;7.598;2023-04-07T01:47:39;32.67;29.67;21.67
76383;PMS7003;65204;48.606;7.598;2023-04-07T01:48:10;25.25;25.25;19.00
76383;PMS7003;65204;48.606;7.598;2023-04-07T01:48:42;27.50;26.00;18.50
76383;PMS7003;65204;48.606;7.598;2023-04-07T01:49:12;28.00;26.00;17.33
76383;PMS7003;65204;48.606;7.598;2023-04-07T01:49:44;31.50;27.00;16.75
76383;PMS7003;65204;48.606;7.598;2023-04-07T01:50:16;28.25;24.75;18.50
76383;PMS7003;65204;48.606;7.598;2023-04-07T01:50:47;26.67;25.00;18.00
76383;PMS7003;65204;48.606;7.598;2023-04-07T01:51:19;20.75;18.00;15.00
76383;PMS7003;65204;48.606;7.598;2023-04-07T01:51:51;30.75;28.25;21.50
76383;PMS7003;65204;48.606;7.598;2023-04-07T01:52:23;26.50;25.25;18.00
76383;PMS7003;65204;48.606;7.598;2023-04-07T01:52:55;26.50;26.50;18.00
76383;PMS7003;65204;48.606;7.598;2023-04-07T01:53:26;29.75;26.75;18.25
76383;PMS7003;65204;48.606;7.598;2023-04-07T01:53:57;30.00;22.67;17.00
76383;PMS7003;65204;48.606;7.598;2023-04-07T01:54:28;19.75;19.00;17.00
76383;PMS7003;65204;48.606;7.598;2023-04-07T01:54:59;28.00;27.33;19.67
76383;PMS7003;65204;48.606;7.598;2023-04-07T01:55:30;27.67;27.67;20.00
76383;PMS7003;65204;48.606;7.598;2023-04-07T01:56:01;25.00;22.50;17.00
76383;PMS7003;65204;48.606;7.598;2023-04-07T01:56:32;21.00;21.00;15.00
76383;PMS7003;65204;48.606;7.598;2023-04-07T01:57:02;26.00;23.25;17.50
76383;PMS7003;65204;48.606;7.598;2023-04-07T01:57:33;26.67;23.67;17.00
76383;PMS7003;65204;48.606;7.598;2023-04-07T01:58:04;23.67;23.33;18.00
76383;PMS7003;65204;48.606;7.598;2023-04-07T01:58:35;23.25;21.25;16.25
76383;PMS7003;65204;48.606;7.598;2023-04-07T01:59:05;27.33;26.33;18.33
76383;PMS7003;65204;48.606;7.598;2023-04-07T01:59:36;25.67;24.67;18.33
76383;PMS7003;65204;48.606;7.598;2023-04-07T02:00:06;23.00;20.67;15.67
76383;PMS7003;65204;48.606;7.598;2023-04-07T02:00:37;26.00;24.00;17.67
76383;PMS7003;65204;48.606;7.598;2023-04-07T02:01:07;25.00;22.67;18.33
76383;PMS7003;65204;48.606;7.598;2023-04-07T02:01:38;21.33;19.67;16.00
76383;PMS7003;65204;48.606;7.598;2023-04-07T02:02:08;22.67;21.00;17.67
76383;PMS7003;65204;48.606;7.598;2023-04-07T02:02:40;28.67;23.00;17.00
76383;PMS7003;65204;48.606;7.598;2023-04-07T02:03:14;22.50;21.50;17.75
76383;PMS7003;65204;48.606;7.598;2023-04-07T02:03:55;25.75;24.50;18.75
76383;PMS7003;65204;48.606;7.598;2023-04-07T02:04:34;24.00;22.75;17.25
76383;PMS7003;65204;48.606;7.598;2023-04-07T02:05:11;22.75;22.75;17.25
76383;PMS7003;65204;48.606;7.598;2023-04-07T02:05:43;20.00;17.50;13.50
76383;PMS7003;65204;48.606;7.598;2023-04-07T02:06:14;17.67;17.00;16.00
76383;PMS7003;65204;48.606;7.598;2023-04-07T02:06:55;26.25;20.25;16.50
76383;PMS7003;65204;48.606;7.598;2023-04-07T02:08:30;24.50;24.50;17.75
76383;PMS7003;65204;48.606;7.598;2023-04-07T02:08:34;22.25;22.25;15.50
76383;PMS7003;65204;48.606;7.598;2023-04-07T02:09:06;26.75;21.25;17.00
76383;PMS7003;65204;48.606;7.598;2023-04-07T02:09:39;23.75;21.50;16.25
76383;PMS7003;65204;48.606;7.598;2023-04-07T02:10:12;21.50;19.50;15.00
76383;PMS7003;65204;48.606;7.598;2023-04-07T02:10:46;21.25;21.00;16.50
76383;PMS7003;65204;48.606;7.598;2023-04-07T02:11:20;24.50;22.25;17.00
76383;PMS7003;65204;48.606;7.598;2023-04-07T02:11:52;23.25;22.25;17.25
76383;PMS7003;65204;48.606;7.598;2023-04-07T02:12:27;20.50;20.00;16.50
76383;PMS7003;65204;48.606;7.598;2023-04-07T02:13:00;24.75;24.75;18.50
76383;PMS7003;65204;48.606;7.598;2023-04-07T02:13:33;22.75;21.50;15.00
76383;PMS7003;65204;48.606;7.598;2023-04-07T02:14:06;20.75;20.75;15.50
76383;PMS7003;65204;48.606;7.598;2023-04-07T02:14:38;21.75;21.75;16.50
76383;PMS7003;65204;48.606;7.598;2023-04-07T02:15:09;16.25;14.00;12.25
76383;PMS7003;65204;48.606;7.598;2023-04-07T02:15:41;25.25;22.25;17.25
76383;PMS7003;65204;48.606;7.598;2023-04-07T02:16:14;20.00;20.00;15.25
76383;PMS7003;65204;48.606;7.598;2023-04-07T02:16:46;27.75;24.50;18.50
76383;PMS7003;65204;48.606;7.598;2023-04-07T02:17:17;21.25;21.25;16.50
76383;PMS7003;65204;48.606;7.598;2023-04-07T02:17:48;27.33;23.00;16.00
76383;PMS7003;65204;48.606;7.598;2023-04-07T02:18:22;24.00;21.50;17.25
76383;PMS7003;65204;48.606;7.598;2023-04-07T02:18:56;24.00;24.00;19.25
76383;PMS7003;65204;48.606;7.598;2023-04-07T02:19:27;29.25;27.75;19.25
76383;PMS7003;65204;48.606;7.598;2023-04-07T02:19:59;24.50;22.50;16.25
76383;PMS7003;65204;48.606;7.598;2023-04-07T02:20:31;28.00;24.25;16.50
76383;PMS7003;65204;48.606;7.598;2023-04-07T02:21:04;30.25;23.00;15.75
76383;PMS7003;65204;48.606;7.598;2023-04-07T02:21:34;28.33;26.00;19.00
76383;PMS7003;65204;48.606;7.598;2023-04-07T02:22:06;21.75;20.25;17.00
76383;PMS7003;65204;48.606;7.598;2023-04-07T02:22:38;23.50;23.50;17.00
76383;PMS7003;65204;48.606;7.598;2023-04-07T02:23:08;24.33;21.67;16.33
76383;PMS7003;65204;48.606;7.598;2023-04-07T02:23:39;24.00;23.00;16.00
76383;PMS7003;65204;48.606;7.598;2023-04-07T02:24:10;22.00;22.00;16.33
76383;PMS7003;65204;48.606;7.598;2023-04-07T02:24:41;25.00;22.75;17.25
76383;PMS7003;65204;48.606;7.598;2023-04-07T02:25:21;21.00;21.00;15.67
76383;PMS7003;65204;48.606;7.598;2023-04-07T02:25:59;24.50;22.00;15.75
76383;PMS7003;65204;48.606;7.598;2023-04-07T02:26:33;24.67;24.67;18.67
76383;PMS7003;65204;48.606;7.598;2023-04-07T02:27:05;18.25;17.75;14.75
76383;PMS7003;65204;48.606;7.598;2023-04-07T02:27:35;23.00;22.67;16.00
76383;PMS7003;65204;48.606;7.598;2023-04-07T02:28:05;22.67;20.67;16.67
76383;PMS7003;65204;48.606;7.598;2023-04-07T02:28:36;28.00;23.67;17.00
76383;PMS7003;65204;48.606;7.598;2023-04-07T02:29:06;16.00;15.33;10.67
76383;PMS7003;65204;48.606;7.598;2023-04-07T02:29:36;21.00;20.67;16.67
76383;PMS7003;65204;48.606;7.598;2023-04-07T02:30:07;23.00;22.67;17.00
76383;PMS7003;65204;48.606;7.598;2023-04-07T02:30:38;23.00;23.00;17.00
76383;PMS7003;65204;48.606;7.598;2023-04-07T02:31:09;23.00;22.33;16.33
76383;PMS7003;65204;48.606;7.598;2023-04-07T02:31:40;23.75;22.25;14.50
76383;PMS7003;65204;48.606;7.598;2023-04-07T02:32:10;24.00;24.00;18.00
76383;PMS7003;65204;48.606;7.598;2023-04-07T02:32:40;27.00;24.33;17.00
76383;PMS7003;65204;48.606;7.598;2023-04-07T02:33:11;24.33;22.00;17.33
76383;PMS7003;65204;48.606;7.598;2023-04-07T02:33:41;27.67;25.67;17.67
76383;PMS7003;65204;48.606;7.598;2023-04-07T02:34:11;27.67;25.00;17.33
76383;PMS7003;65204;48.606;7.598;2023-04-07T02:34:42;23.00;23.00;17.67
76383;PMS7003;65204;48.606;7.598;2023-04-07T02:35:13;26.00;24.00;16.33
76383;PMS7003;65204;48.606;7.598;2023-04-07T02:35:45;18.75;18.75;12.25
76383;PMS7003;65204;48.606;7.598;2023-04-07T02:36:15;21.33;21.33;16.33
76383;PMS7003;65204;48.606;7.598;2023-04-07T02:36:45;27.67;27.00;19.33
76383;PMS7003;65204;48.606;7.598;2023-04-07T02:37:15;28.00;24.33;19.00
76383;PMS7003;65204;48.606;7.598;2023-04-07T02:37:46;21.67;20.33;16.67
76383;PMS7003;65204;48.606;7.598;2023-04-07T02:38:16;26.33;24.33;17.33
76383;PMS7003;65204;48.606;7.598;2023-04-07T02:38:47;22.00;20.00;16.67
76383;PMS7003;65204;48.606;7.598;2023-04-07T02:39:18;23.25;23.00;18.25
76383;PMS7003;65204;48.606;7.598;2023-04-07T02:39:48;23.67;23.67;17.67
76383;PMS7003;65204;48.606;7.598;2023-04-07T02:40:18;25.00;22.67;17.00
76383;PMS7003;65204;48.606;7.598;2023-04-07T02:40:49;22.67;21.00;17.00
76383;PMS7003;65204;48.606;7.598;2023-04-07T02:41:19;28.67;23.33;17.00
76383;PMS7003;65204;48.606;7.598;2023-04-07T02:41:50;23.00;21.00;14.67
76383;PMS7003;65204;48.606;7.598;2023-04-07T02:42:20;22.67;22.00;15.00
76383;PMS7003;65204;48.606;7.598;2023-04-07T02:42:51;23.00;22.00;17.67
76383;PMS7003;65204;48.606;7.598;2023-04-07T02:43:22;25.00;25.00;17.00
76383;PMS7003;65204;48.606;7.598;2023-04-07T02:43:52;21.75;21.00;17.25
76383;PMS7003;65204;48.606;7.598;2023-04-07T02:44:23;24.00;23.00;19.00
76383;PMS7003;65204;48.606;7.598;2023-04-07T02:44:53;23.00;22.00;16.00
76383;PMS7003;65204;48.606;7.598;2023-04-07T02:45:23;23.33;21.33;17.33
76383;PMS7003;65204;48.606;7.598;2023-04-07T02:45:54;24.00;23.00;17.67
76383;PMS7003;65204;48.606;7.598;2023-04-07T02:46:24;23.67;22.33;17.67
76383;PMS7003;65204;48.606;7.598;2023-04-07T02:46:54;22.00;21.33;16.33
76383;PMS7003;65204;48.606;7.598;2023-04-07T02:47:25;21.67;21.67;17.33
76383;PMS7003;65204;48.606;7.598;2023-04-07T02:47:55;21.67;19.67;14.33
76383;PMS7003;65204;48.606;7.598;2023-04-07T02:48:25;19.33;19.00;14.33
76383;PMS7003;65204;48.606;7.598;2023-04-07T02:48:56;27.00;23.67;17.67
76383;PMS7003;65204;48.606;7.598;2023-04-07T02:49:26;23.33;23.33;16.67
76383;PMS7003;65204;48.606;7.598;2023-04-07T02:49:56;26.00;24.67;19.67
76383;PMS7003;65204;48.606;7.598;2023-04-07T02:50:27;28.33;25.00;16.33
76383;PMS7003;65204;48.606;7.598;2023-04-07T02:50:58;24.00;23.00;17.00
76383;PMS7003;65204;48.606;7.598;2023-04-07T02:51:28;20.67;20.67;16.33
76383;PMS7003;65204;48.606;7.598;2023-04-07T02:51:58;24.00;22.00;17.33
76383;PMS7003;65204;48.606;7.598;2023-04-07T02:52:28;20.67;20.67;16.67
76383;PMS7003;65204;48.606;7.598;2023-04-07T02:52:59;23.33;22.33;16.00
76383;PMS7003;65204;48.606;7.598;2023-04-07T02:53:29;21.00;21.00;16.67
76383;PMS7003;65204;48.606;7.598;2023-04-07T02:54:00;21.67;18.67;14.33
76383;PMS7003;65204;48.606;7.598;2023-04-07T02:54:30;20.67;20.00;18.33
76383;PMS7003;65204;48.606;7.598;2023-04-07T02:55:00;20.67;19.67;16.67
76383;PMS7003;65204;48.606;7.598;2023-04-07T02:55:31;19.33;18.33;14.00
76383;PMS7003;65204;48.606;7.598;2023-04-07T02:56:01;16.00;15.00;12.33
76383;PMS7003;65204;48.606;7.598;2023-04-07T02:56:32;22.00;20.67;16.67
76383;PMS7003;65204;48.606;7.598;2023-04-07T02:57:02;26.33;24.33;16.33
76383;PMS7003;65204;48.606;7.598;2023-04-07T02:57:33;20.67;18.33;14.00
76383;PMS7003;65204;48.606;7.598;2023-04-07T02:58:03;21.67;21.00;16.33
76383;PMS7003;65204;48.606;7.598;2023-04-07T02:58:33;20.00;20.00;15.67
76383;PMS7003;65204;48.606;7.598;2023-04-07T02:59:03;21.00;19.00;15.33
76383;PMS7003;65204;48.606;7.598;2023-04-07T02:59:34;23.33;19.00;15.33
76383;PMS7003;65204;48.606;7.598;2023-04-07T03:00:05;19.00;18.00;14.33
76383;PMS7003;65204;48.606;7.598;2023-04-07T03:00:36;26.75;22.00;17.00
76383;PMS7003;65204;48.606;7.598;2023-04-07T03:01:06;21.67;20.67;15.33
76383;PMS7003;65204;48.606;7.598;2023-04-07T03:01:37;25.33;20.67;16.67
76383;PMS7003;65204;48.606;7.598;2023-04-07T03:02:08;19.75;17.75;14.00
76383;PMS7003;65204;48.606;7.598;2023-04-07T03:02:38;20.33;19.33;15.00
76383;PMS7003;65204;48.606;7.598;2023-04-07T03:03:08;18.00;16.33;13.67
76383;PMS7003;65204;48.606;7.598;2023-04-07T03:03:39;17.00;16.33;13.33
76383;PMS7003;65204;48.606;7.598;2023-04-07T03:04:11;20.25;19.75;15.50
76383;PMS7003;65204;48.606;7.598;2023-04-07T03:04:42;21.33;21.33;16.33